Time;durP1;ratioP1;P1;durP2;ratioP2;P2;SDS_P1;SDS_P2;PMS_P1;PMS_P2;Temp;Humidity;BMP_temperature;BMP_pressure;BME280_temperature;BME280_humidity;BME280_pressure;Samples;Min_cycle;Max_cycle;Signal;HPM_P1;HPM_P2
2023/10/04 00:00:15;;;;;;;3.97;2.67;;;;;;;11.40;55.90;94226.56;521842;28;974;-44
2023/10/04 00:00:31;;;;;;;5.50;2.97;;;;;;;11.40;55.90;94223.78;521809;28;1628;-46
2023/10/04 00:00:47;;;;;;;5.03;3.00;;;;;;;11.38;55.84;94218.81;521896;28;1738;-46
2023/10/04 00:01:04;;;;;;;5.15;3.00;;;;;;;11.39;55.98;94223.03;521869;28;891;-45
2023/10/04 00:01:22;;;;;;;3.63;2.55;;;;;;;11.40;56.10;94218.25;521858;28;886;-45
2023/10/04 00:01:37;;;;;;;3.35;2.78;;;;;;;11.38;56.01;94224.34;521982;28;813;-45
2023/10/04 00:01:53;;;;;;;3.67;3.00;;;;;;;11.37;55.74;94219.31;521895;28;887;-45
2023/10/04 00:02:09;;;;;;;3.43;3.10;;;;;;;11.37;55.72;94216.56;521829;28;887;-46
2023/10/04 00:02:25;;;;;;;4.85;3.25;;;;;;;11.38;56.03;94220.81;521880;28;907;-47
2023/10/04 00:02:53;;;;;;;4.37;3.07;;;;;;;11.36;55.93;94224.13;521883;28;855;-45
2023/10/04 00:03:08;;;;;;;5.38;2.85;;;;;;;11.37;55.96;94219.31;521942;28;856;-45
2023/10/04 00:03:24;;;;;;;4.63;2.80;;;;;;;11.35;56.16;94216.34;521892;28;817;-46
2023/10/04 00:03:39;;;;;;;4.45;3.03;;;;;;;11.35;56.16;94222.63;521931;28;812;-45
2023/10/04 00:03:55;;;;;;;5.13;3.10;;;;;;;11.35;56.10;94213.59;521901;28;812;-45
2023/10/04 00:04:10;;;;;;;5.23;3.00;;;;;;;11.34;56.25;94221.16;521768;28;1977;-46
2023/10/04 00:04:25;;;;;;;4.18;3.08;;;;;;;11.34;55.78;94218.41;521934;28;851;-45
2023/10/04 00:04:43;;;;;;;4.70;3.10;;;;;;;11.33;55.95;94216.91;521852;28;875;-46
2023/10/04 00:04:58;;;;;;;4.38;3.15;;;;;;;11.32;55.95;94220.94;521894;28;872;-44
2023/10/04 00:05:17;;;;;;;4.05;3.25;;;;;;;11.32;55.92;94215.41;521858;28;947;-44
2023/10/04 00:05:34;;;;;;;5.00;3.38;;;;;;;11.32;55.77;94223.72;521787;28;904;-46
2023/10/04 00:05:49;;;;;;;5.88;3.40;;;;;;;11.31;56.07;94222.22;521914;28;1025;-47
2023/10/04 00:06:05;;;;;;;5.22;3.25;;;;;;;11.30;56.03;94214.47;521944;28;817;-45
2023/10/04 00:06:20;;;;;;;4.50;3.07;;;;;;;11.31;55.80;94218.69;521861;28;789;-45
2023/10/04 00:06:36;;;;;;;4.13;2.77;;;;;;;11.31;55.66;94221.47;521884;28;891;-45
2023/10/04 00:06:52;;;;;;;3.90;2.85;;;;;;;11.30;55.75;94214.47;521880;28;907;-45
2023/10/04 00:07:07;;;;;;;3.80;2.87;;;;;;;11.29;55.83;94213.72;521877;28;813;-46
2023/10/04 00:07:23;;;;;;;3.92;2.63;;;;;;;11.28;55.89;94212.22;521772;28;808;-46
2023/10/04 00:07:39;;;;;;;4.47;2.90;;;;;;;11.28;55.86;94222.56;521934;28;1000;-45
2023/10/04 00:07:56;;;;;;;3.28;2.78;;;;;;;11.20;55.72;94207.88;521884;28;887;-46
2023/10/04 00:08:11;;;;;;;3.50;2.80;;;;;;;11.27;55.67;94221.06;521851;28;854;-45
2023/10/04 00:08:26;;;;;;;4.40;2.93;;;;;;;11.27;55.53;94221.06;521891;28;974;-46
2023/10/04 00:08:42;;;;;;;3.97;2.70;;;;;;;11.27;55.44;94218.28;521882;28;848;-45
2023/10/04 00:09:03;;;;;;;3.67;2.83;;;;;;;11.27;55.84;94212.75;521971;28;777;-45
2023/10/04 00:09:19;;;;;;;3.70;2.80;;;;;;;11.27;55.79;94218.28;521829;28;909;-44
2023/10/04 00:09:34;;;;;;;3.93;2.83;;;;;;;11.26;55.46;94219.59;521888;28;812;-44
2023/10/04 00:09:51;;;;;;;4.18;2.80;;;;;;;11.24;55.50;94220.09;521863;28;924;-46
2023/10/04 00:10:07;;;;;;;3.75;2.83;;;;;;;11.23;55.55;94212.34;521830;28;1063;-45
2023/10/04 00:10:23;;;;;;;3.83;3.22;;;;;;;11.23;55.71;94215.88;521863;28;785;-46
2023/10/04 00:10:39;;;;;;;4.43;3.10;;;;;;;11.22;55.74;94211.59;521939;28;844;-44
2023/10/04 00:10:55;;;;;;;5.07;2.90;;;;;;;11.23;55.84;94217.88;521821;28;860;-46
2023/10/04 00:11:14;;;;;;;6.00;3.20;;;;;;;11.22;55.89;94217.13;521942;28;866;-45
2023/10/04 00:11:33;;;;;;;5.65;3.30;;;;;;;11.20;56.20;94214.16;521871;28;1635;-45
2023/10/04 00:11:48;;;;;;;6.28;3.65;;;;;;;11.20;55.96;94211.38;521872;28;962;-44
2023/10/04 00:12:04;;;;;;;4.53;3.27;;;;;;;11.20;55.95;94216.91;521836;28;1159;-45
2023/10/04 00:12:20;;;;;;;4.20;2.85;;;;;;;11.20;56.23;94211.38;521877;28;855;-47
2023/10/04 00:12:36;;;;;;;4.70;2.88;;;;;;;11.10;55.84;94204.06;521866;28;894;-46
2023/10/04 00:12:53;;;;;;;6.13;3.23;;;;;;;11.19;56.01;94214.69;521851;28;939;-45
2023/10/04 00:13:08;;;;;;;6.18;3.42;;;;;;;11.18;55.98;94215.97;521931;28;864;-44
2023/10/04 00:13:24;;;;;;;5.65;3.60;;;;;;;11.17;56.13;94214.50;521749;28;895;-44
2023/10/04 00:13:43;;;;;;;5.50;3.33;;;;;;;11.17;55.83;94214.50;521860;28;1666;-45
2023/10/04 00:13:59;;;;;;;3.80;3.00;;;;;;;11.16;56.28;94218.53;521923;28;852;-44
2023/10/04 00:14:15;;;;;;;4.78;3.08;;;;;;;11.15;56.04;94212.25;521820;28;1120;-45
2023/10/04 00:14:30;;;;;;;5.15;2.95;;;;;;;11.14;56.09;94212.78;521857;28;785;-44
2023/10/04 00:14:46;;;;;;;4.97;3.00;;;;;;;11.13;56.11;94214.78;521949;28;812;-45
2023/10/04 00:15:04;;;;;;;4.63;2.85;;;;;;;11.12;56.49;94213.31;521810;28;883;-45
2023/10/04 00:15:20;;;;;;;3.58;2.92;;;;;;;11.12;56.19;94210.56;521823;28;895;-44
2023/10/04 00:15:35;;;;;;;5.93;3.42;;;;;;;11.12;56.10;94216.09;521843;28;894;-45
2023/10/04 00:15:51;;;;;;;6.10;3.40;;;;;;;11.12;56.30;94209.81;521866;28;907;-45
2023/10/04 00:16:37;;;;;;;4.43;3.00;;;;;;;11.12;56.29;94216.09;521875;28;847;-45
2023/10/04 00:16:58;;;;;;;4.20;2.80;;;;;;;11.02;56.02;94194.97;521777;28;863;-45
2023/10/04 00:17:15;;;;;;;4.10;3.10;;;;;;;11.09;56.03;94213.63;521784;28;991;-45
2023/10/04 00:17:30;;;;;;;4.95;3.30;;;;;;;11.08;56.04;94212.16;521900;28;872;-46
2023/10/04 00:17:46;;;;;;;3.87;2.97;;;;;;;11.09;56.14;94216.41;521826;28;904;-44
2023/10/04 00:18:03;;;;;;;3.67;2.85;;;;;;;11.04;56.23;94198.69;521843;28;820;-44
2023/10/04 00:18:18;;;;;;;4.85;3.10;;;;;;;11.05;56.49;94208.44;521777;28;825;-44
2023/10/04 00:18:34;;;;;;;3.87;2.80;;;;;;;11.05;56.57;94210.47;521849;28;849;-45
2023/10/04 00:18:49;;;;;;;4.03;2.70;;;;;;;11.05;56.55;94205.69;521859;28;828;-44
2023/10/04 00:19:06;;;;;;;7.87;3.07;;;;;;;11.05;56.51;94204.94;521860;28;927;-45
2023/10/04 00:19:21;;;;;;;8.20;3.40;;;;;;;11.04;56.29;94200.69;521797;28;868;-44
2023/10/04 00:19:39;;;;;;;4.23;3.10;;;;;;;11.03;56.58;94207.47;521943;28;836;-46
2023/10/04 00:19:54;;;;;;;4.72;2.88;;;;;;;11.03;56.54;94207.47;521854;28;867;-44
2023/10/04 00:20:16;;;;;;;4.97;3.00;;;;;;;11.01;56.27;94207.28;521875;28;938;-45
2023/10/04 00:20:32;;;;;;;4.72;3.20;;;;;;;11.00;56.16;94214.09;521844;28;895;-46
2023/10/04 00:20:47;;;;;;;6.07;2.90;;;;;;;10.98;56.42;94206.31;521858;28;840;-45
2023/10/04 00:21:07;;;;;;;6.18;2.78;;;;;;;10.97;56.83;94202.09;521816;28;1222;-46
2023/10/04 00:21:24;;;;;;;5.78;3.60;;;;;;;10.98;56.68;94205.59;521812;28;888;-45
2023/10/04 00:21:39;;;;;;;6.40;3.63;;;;;;;10.97;56.56;94204.09;521841;28;892;-45
2023/10/04 00:21:54;;;;;;;4.75;3.03;;;;;;;10.95;56.83;94204.63;521914;28;876;-44
2023/10/04 00:22:10;;;;;;;3.27;2.70;;;;;;;10.90;56.90;94190.91;521887;28;811;-47
2023/10/04 00:22:25;;;;;;;4.03;2.92;;;;;;;10.96;56.73;94208.16;521853;28;825;-46
2023/10/04 00:22:41;;;;;;;5.10;3.07;;;;;;;10.95;56.75;94201.13;521854;28;1119;-45
2023/10/04 00:22:56;;;;;;;5.25;2.80;;;;;;;10.94;56.76;94205.16;521917;28;867;-44
2023/10/04 00:23:13;;;;;;;6.10;2.80;;;;;;;10.94;57.03;94207.91;521838;28;843;-45
2023/10/04 00:23:28;;;;;;;6.35;2.83;;;;;;;10.95;57.11;94207.41;521832;28;887;-44
2023/10/04 00:23:44;;;;;;;5.43;3.07;;;;;;;10.95;57.03;94207.41;521877;28;883;-46
2023/10/04 00:23:59;;;;;;;4.90;3.00;;;;;;;10.94;57.03;94205.91;521829;28;879;-45
2023/10/04 00:24:14;;;;;;;4.80;3.30;;;;;;;10.93;57.07;94207.19;521774;28;1938;-46
2023/10/04 00:24:31;;;;;;;4.27;3.23;;;;;;;10.93;57.21;94207.19;521768;28;844;-45
2023/10/04 00:24:50;;;;;;;4.13;3.00;;;;;;;10.95;57.33;94214.94;521938;28;879;-44
2023/10/04 00:25:09;;;;;;;5.50;2.85;;;;;;;10.94;57.34;94211.44;521825;28;1106;-44
2023/10/04 00:25:25;;;;;;;4.88;2.90;;;;;;;10.94;57.19;94210.69;521725;28;879;-44
2023/10/04 00:25:41;;;;;;;4.70;3.15;;;;;;;10.93;57.37;94215.47;521718;28;1017;-45
2023/10/04 00:25:56;;;;;;;4.83;3.30;;;;;;;10.87;57.31;94203.78;521927;28;864;-45
2023/10/04 00:26:11;;;;;;;5.85;3.13;;;;;;;10.91;57.36;94206.22;521848;28;823;-45
2023/10/04 00:26:27;;;;;;;5.37;3.30;;;;;;;10.89;57.40;94206.03;521817;28;872;-44
2023/10/04 00:26:43;;;;;;;5.83;3.27;;;;;;;10.89;57.13;94208.78;521781;28;1021;-45
2023/10/04 00:26:59;;;;;;;6.70;3.22;;;;;;;10.89;57.54;94212.28;521907;28;859;-46
2023/10/04 00:27:14;;;;;;;5.60;3.20;;;;;;;10.90;57.38;94210.25;521846;28;824;-46
2023/10/04 00:27:31;;;;;;;4.32;2.97;;;;;;;10.88;57.35;94207.28;521855;28;860;-45
2023/10/04 00:27:56;;;;;;;3.57;3.00;;;;;;;10.90;57.53;94207.50;521860;28;781;-45
2023/10/04 00:28:12;;;;;;;4.93;3.30;;;;;;;10.89;57.52;94214.31;521784;28;1074;-46
2023/10/04 00:28:29;;;;;;;5.77;3.60;;;;;;;10.89;57.40;94206.03;521825;28;1618;-44
2023/10/04 00:28:44;;;;;;;4.82;3.22;;;;;;;10.88;57.20;94207.28;521771;28;1073;-45
2023/10/04 00:28:59;;;;;;;6.40;2.83;;;;;;;10.84;57.53;94201.34;521836;28;1123;-45
2023/10/04 00:29:17;;;;;;;6.93;3.27;;;;;;;10.88;57.35;94215.56;521852;28;828;-46
2023/10/04 00:29:32;;;;;;;4.32;3.33;;;;;;;10.87;57.73;94214.09;521784;28;876;-47
2023/10/04 00:29:48;;;;;;;5.40;3.50;;;;;;;10.87;57.59;94216.88;521843;28;867;-47
2023/10/04 00:30:06;;;;;;;6.17;3.77;;;;;;;10.86;57.13;94210.59;521791;28;857;-45
2023/10/04 00:30:26;;;;;;;4.88;3.13;;;;;;;10.87;57.64;94211.34;521825;28;929;-45
2023/10/04 00:30:43;;;;;;;5.78;3.22;;;;;;;10.85;57.46;94211.13;521817;28;864;-47
2023/10/04 00:30:58;;;;;;;6.18;3.22;;;;;;;10.75;57.57;94191.47;521923;28;820;-47
2023/10/04 00:31:14;;;;;;;4.27;3.00;;;;;;;10.84;57.45;94212.38;521811;28;1002;-47
2023/10/04 00:31:31;;;;;;;4.68;2.85;;;;;;;10.84;57.38;94206.88;521872;28;780;-48
2023/10/04 00:31:47;;;;;;;3.95;2.67;;;;;;;10.79;57.45;94197.41;521866;28;938;-44
2023/10/04 00:32:04;;;;;;;4.70;3.05;;;;;;;10.82;57.19;94210.16;521831;28;797;-44
2023/10/04 00:32:21;;;;;;;5.45;3.10;;;;;;;10.86;57.41;94207.06;521874;28;875;-46
2023/10/04 00:32:36;;;;;;;6.55;2.95;;;;;;;10.84;57.51;94213.13;521916;28;1167;-45
2023/10/04 00:32:53;;;;;;;5.57;3.15;;;;;;;10.76;57.57;94197.75;521804;28;899;-44
2023/10/04 00:33:08;;;;;;;12.60;3.80;;;;;;;10.84;57.59;94212.38;521893;28;816;-45
2023/10/04 00:33:24;;;;;;;16.80;3.72;;;;;;;10.85;57.54;94205.59;521801;28;1283;-45
2023/10/04 00:33:39;;;;;;;7.57;2.70;;;;;;;10.84;57.41;94210.38;521757;28;888;-45
2023/10/04 00:33:54;;;;;;;3.83;2.70;;;;;;;10.85;57.43;94203.56;521715;28;1330;-44
2023/10/04 00:34:10;;;;;;;4.25;2.85;;;;;;;10.86;57.25;94204.31;521849;28;896;-45
2023/10/04 00:34:25;;;;;;;3.90;2.60;;;;;;;10.84;57.34;94201.34;521794;28;864;-47
2023/10/04 00:34:40;;;;;;;7.33;3.03;;;;;;;10.83;57.22;94199.88;521792;28;832;-45
2023/10/04 00:34:56;;;;;;;9.27;3.85;;;;;;;10.85;57.56;94208.38;521832;28;1529;-44
2023/10/04 00:35:12;;;;;;;6.50;3.80;;;;;;;10.86;57.31;94207.06;521858;28;769;-45
2023/10/04 00:35:27;;;;;;;4.43;3.08;;;;;;;10.85;57.10;94213.88;521815;28;892;-45
2023/10/04 00:35:42;;;;;;;3.67;2.80;;;;;;;10.84;57.14;94207.63;521736;28;880;-45
2023/10/04 00:36:04;;;;;;;5.40;3.00;;;;;;;10.84;57.11;94199.34;521697;28;896;-45
2023/10/04 00:36:21;;;;;;;7.25;3.10;;;;;;;10.84;57.32;94204.84;521560;28;984;-47
2023/10/04 00:36:37;;;;;;;4.10;3.03;;;;;;;10.84;57.13;94198.59;521666;28;994;-45
2023/10/04 00:36:52;;;;;;;5.47;2.93;;;;;;;10.85;57.39;94200.09;521611;28;856;-45
2023/10/04 00:37:08;;;;;;;6.13;3.13;;;;;;;10.84;56.84;94204.84;521683;28;804;-45
2023/10/04 00:37:24;;;;;;;4.00;2.87;;;;;;;10.84;57.12;94209.63;521688;28;885;-45
2023/10/04 00:37:42;;;;;;;3.45;2.90;;;;;;;10.84;57.21;94198.59;521654;28;853;-45
2023/10/04 00:38:00;;;;;;;3.75;3.00;;;;;;;10.84;57.25;94206.88;521778;28;1127;-45
2023/10/04 00:38:16;;;;;;;4.78;3.17;;;;;;;10.85;56.79;94205.59;521856;28;899;-44
2023/10/04 00:38:32;;;;;;;5.55;3.15;;;;;;;10.84;57.08;94206.88;521839;28;826;-45
2023/10/04 00:38:47;;;;;;;5.55;3.20;;;;;;;10.84;56.83;94202.09;521838;28;872;-45
2023/10/04 00:39:03;;;;;;;4.53;3.20;;;;;;;10.82;57.04;94201.13;521790;28;875;-44
2023/10/04 00:39:18;;;;;;;4.05;2.78;;;;;;;10.82;56.72;94201.88;521867;28;911;-44
2023/10/04 00:39:34;;;;;;;7.10;2.97;;;;;;;10.82;56.64;94201.88;521788;28;857;-45
2023/10/04 00:39:49;;;;;;;9.73;3.03;;;;;;;10.81;56.89;94196.88;521823;28;947;-44
2023/10/04 00:40:18;;;;;;;8.67;3.17;;;;;;;10.68;57.07;94185.84;521842;28;867;-45
2023/10/04 00:40:33;;;;;;;4.97;3.00;;;;;;;10.79;57.07;94202.94;521868;28;895;-45
2023/10/04 00:40:50;;;;;;;7.20;2.73;;;;;;;10.79;56.80;94211.22;521852;28;939;-45
2023/10/04 00:41:08;;;;;;;7.72;2.97;;;;;;;10.79;56.89;94202.94;521768;28;947;-45
2023/10/04 00:41:23;;;;;;;7.85;3.20;;;;;;;10.78;57.09;94201.47;521798;28;912;-45
2023/10/04 00:41:40;;;;;;;9.17;4.30;;;;;;;10.77;56.87;94202.72;521867;28;890;-46
2023/10/04 00:41:55;;;;;;;7.50;3.90;;;;;;;10.76;57.01;94204.00;521869;28;908;-45
2023/10/04 00:42:12;;;;;;;8.83;3.77;;;;;;;10.76;57.15;94208.78;521824;28;1045;-45
2023/10/04 00:42:28;;;;;;;9.07;3.65;;;;;;;10.75;56.81;94202.50;521877;28;872;-46
2023/10/04 00:42:43;;;;;;;5.18;2.78;;;;;;;10.64;56.92;94188.91;521803;28;825;-45
2023/10/04 00:43:13;;;;;;;4.70;2.80;;;;;;;10.73;57.13;94199.53;521902;28;802;-44
2023/10/04 00:43:29;;;;;;;5.25;2.90;;;;;;;10.73;57.21;94201.56;521805;28;883;-45
2023/10/04 00:43:51;;;;;;;6.38;3.03;;;;;;;10.72;57.25;94205.59;521829;28;841;-46
2023/10/04 00:44:07;;;;;;;5.63;3.08;;;;;;;10.69;57.23;94196.38;521810;28;1910;-45
2023/10/04 00:44:23;;;;;;;4.53;2.85;;;;;;;10.71;57.25;94199.34;521828;28;904;-44
2023/10/04 00:44:38;;;;;;;3.45;3.10;;;;;;;10.72;57.24;94206.34;521799;28;891;-45
2023/10/04 00:44:54;;;;;;;3.97;3.00;;;;;;;10.72;56.97;94205.59;521833;28;833;-46
2023/10/04 00:45:12;;;;;;;4.30;2.80;;;;;;;10.72;57.38;94203.56;521804;28;869;-45
2023/10/04 00:45:31;;;;;;;3.90;2.90;;;;;;;10.72;57.18;94209.09;521884;28;821;-44
2023/10/04 00:45:50;;;;;;;3.58;2.78;;;;;;;10.72;57.25;94205.59;521870;28;1021;-45
2023/10/04 00:46:05;;;;;;;3.80;2.85;;;;;;;10.71;57.13;94198.59;521893;28;964;-46
2023/10/04 00:46:22;;;;;;;5.03;3.33;;;;;;;10.71;57.21;94201.34;521814;28;825;-45
2023/10/04 00:46:41;;;;;;;4.97;3.10;;;;;;;10.70;57.19;94195.06;521879;28;872;-45
2023/10/04 00:46:56;;;;;;;7.28;3.13;;;;;;;10.69;57.61;94201.88;521885;28;955;-44
2023/10/04 00:47:12;;;;;;;8.10;3.17;;;;;;;10.66;57.59;94203.69;521779;28;885;-45
2023/10/04 00:47:28;;;;;;;5.40;3.05;;;;;;;10.66;57.49;94200.94;521533;28;2437;-45
2023/10/04 00:47:47;;;;;;;4.70;3.13;;;;;;;10.68;57.39;94199.66;521680;28;793;-45
2023/10/04 00:48:11;;;;;;;5.50;3.20;;;;;;;10.68;57.31;94199.66;521600;28;935;-45
2023/10/04 00:48:34;;;;;;;5.25;3.05;;;;;;;10.66;57.71;94200.94;521641;28;845;-47
2023/10/04 00:48:50;;;;;;;4.32;3.15;;;;;;;10.65;57.80;94199.44;521689;28;908;-45
2023/10/04 00:49:06;;;;;;;4.80;2.90;;;;;;;10.63;57.56;94192.97;519676;28;769;-46
2023/10/04 00:49:21;;;;;;;5.43;3.20;;;;;;;10.63;57.75;94199.22;520597;28;1000;-45
2023/10/04 00:49:37;;;;;;;4.63;3.23;;;;;;;10.51;57.84;94181.38;519716;28;793;-44
2023/10/04 00:49:53;;;;;;;5.95;3.05;;;;;;;10.60;57.63;94194.78;517477;28;848;-45
2023/10/04 00:50:15;;;;;;;6.80;3.10;;;;;;;10.65;57.77;94202.19;515626;28;876;-45
2023/10/04 00:50:31;;;;;;;4.40;3.10;;;;;;;10.66;57.59;94202.94;524062;28;813;-45
2023/10/04 00:50:47;;;;;;;6.10;3.28;;;;;;;10.65;57.73;94195.94;521978;28;951;-45
2023/10/04 00:51:02;;;;;;;7.70;2.83;;;;;;;10.67;57.92;94204.44;523569;28;820;-47
2023/10/04 00:51:22;;;;;;;7.45;2.95;;;;;;;10.64;57.56;94200.72;524070;28;1128;-45
2023/10/04 00:51:38;;;;;;;5.03;2.80;;;;;;;10.65;57.78;94202.19;526140;28;845;-45
2023/10/04 00:51:53;;;;;;;5.30;3.10;;;;;;;10.65;58.06;94202.19;528213;28;954;-45
2023/10/04 00:52:09;;;;;;;4.80;3.50;;;;;;;10.65;57.77;94202.19;519772;28;813;-46
2023/10/04 00:52:24;;;;;;;4.67;3.30;;;;;;;10.64;57.70;94203.47;521408;28;879;-45
2023/10/04 00:52:46;;;;;;;5.28;3.00;;;;;;;10.64;57.74;94199.97;521796;28;875;-45
2023/10/04 00:53:10;;;;;;;4.90;3.13;;;;;;;10.62;58.00;94200.50;521802;28;884;-45
2023/10/04 00:53:26;;;;;;;4.80;2.70;;;;;;;10.65;57.93;94198.69;521848;28;1027;-46
2023/10/04 00:53:43;;;;;;;3.35;2.30;;;;;;;10.64;57.89;94195.19;521861;28;784;-45
2023/10/04 00:53:59;;;;;;;3.92;2.50;;;;;;;10.65;58.08;94198.69;521648;28;926;-45
2023/10/04 00:54:15;;;;;;;3.95;2.65;;;;;;;10.63;58.16;94190.94;521615;28;864;-44
2023/10/04 00:54:31;;;;;;;5.68;2.78;;;;;;;10.40;57.93;94159.50;521692;28;899;-44
2023/10/04 00:54:46;;;;;;;6.47;3.17;;;;;;;10.64;57.81;94194.44;521642;28;824;-44
2023/10/04 00:55:02;;;;;;;6.25;3.30;;;;;;;10.64;57.98;94197.19;521670;28;863;-45
2023/10/04 00:55:19;;;;;;;5.43;3.07;;;;;;;10.63;57.78;94201.97;521661;28;888;-45
2023/10/04 00:55:39;;;;;;;3.35;2.63;;;;;;;10.63;57.66;94199.22;519592;28;1599;-44
2023/10/04 00:55:56;;;;;;;5.45;2.65;;;;;;;10.64;57.85;94205.50;517561;28;865;-45
2023/10/04 00:56:15;;;;;;;5.55;2.83;;;;;;;10.64;57.39;94197.94;517571;28;921;-44
2023/10/04 00:56:31;;;;;;;4.18;2.55;;;;;;;10.63;57.35;94196.44;515559;28;1219;-44
2023/10/04 00:56:46;;;;;;;4.50;2.90;;;;;;;10.64;57.05;94195.19;515586;28;813;-45
2023/10/04 00:57:02;;;;;;;4.47;3.13;;;;;;;10.66;57.32;94200.94;513584;28;813;-45
2023/10/04 00:57:17;;;;;;;5.80;3.33;;;;;;;10.66;56.93;94200.19;515447;28;880;-47
2023/10/04 00:57:34;;;;;;;5.32;3.30;;;;;;;10.66;56.74;94195.41;517495;28;782;-44
2023/10/04 00:57:56;;;;;;;5.60;2.78;;;;;;;10.62;56.48;94191.47;517600;28;895;-46
2023/10/04 00:58:13;;;;;;;4.68;2.78;;;;;;;10.68;56.46;94198.38;517583;28;912;-46
2023/10/04 00:58:29;;;;;;;3.80;3.03;;;;;;;10.68;56.60;94203.91;519607;28;974;-46
2023/10/04 00:58:48;;;;;;;4.77;3.27;;;;;;;10.69;56.38;94196.38;519633;28;797;-45
2023/10/04 00:59:04;;;;;;;6.32;3.20;;;;;;;10.71;56.42;94198.59;521583;28;940;-47
2023/10/04 00:59:19;;;;;;;6.07;2.97;;;;;;;10.71;56.50;94195.81;521690;28;801;-45
2023/10/04 00:59:35;;;;;;;5.20;3.03;;;;;;;10.71;56.33;94193.06;521822;28;946;-45
2023/10/04 00:59:51;;;;;;;4.13;2.80;;;;;;;10.72;56.41;94191.81;521712;28;832;-45
2023/10/04 01:00:09;;;;;;;3.58;2.85;;;;;;;10.69;56.48;94190.84;521867;28;938;-45
2023/10/04 01:00:26;;;;;;;3.40;3.00;;;;;;;10.71;56.51;94199.34;521777;28;847;-45
2023/10/04 01:00:42;;;;;;;3.40;2.92;;;;;;;10.72;56.30;94200.09;521761;28;915;-44
2023/10/04 01:00:57;;;;;;;4.13;3.10;;;;;;;10.71;56.32;94191.06;521915;28;875;-45
2023/10/04 01:01:14;;;;;;;4.33;2.90;;;;;;;10.72;56.58;94195.28;521769;28;892;-45
2023/10/04 01:01:31;;;;;;;4.65;2.80;;;;;;;10.73;56.42;94201.56;521800;28;892;-44
2023/10/04 01:01:46;;;;;;;5.38;3.00;;;;;;;10.59;56.16;94173.19;521801;28;856;-45
2023/10/04 01:02:02;;;;;;;5.37;3.00;;;;;;;10.72;56.03;94197.31;521768;28;963;-48
2023/10/04 01:02:17;;;;;;;5.07;2.90;;;;;;;10.68;56.16;94190.09;521791;28;907;-44
2023/10/04 01:02:33;;;;;;;3.73;2.60;;;;;;;10.73;56.21;94190.50;521835;28;1111;-45
2023/10/04 01:02:49;;;;;;;3.05;2.47;;;;;;;10.72;55.88;94195.28;521839;28;845;-46
2023/10/04 01:03:05;;;;;;;3.60;2.77;;;;;;;10.73;56.14;94201.56;521756;28;960;-48
2023/10/04 01:03:24;;;;;;;4.32;2.85;;;;;;;10.73;56.23;94198.78;521807;28;832;-47
2023/10/04 01:03:40;;;;;;;4.07;2.78;;;;;;;10.73;56.22;94194.03;521808;28;846;-49
2023/10/04 01:03:55;;;;;;;3.88;2.78;;;;;;;10.73;55.86;94198.78;521816;28;919;-48
2023/10/04 01:04:11;;;;;;;4.68;2.97;;;;;;;10.73;55.97;94196.78;521694;28;1991;-47
2023/10/04 01:04:27;;;;;;;7.40;3.40;;;;;;;10.73;55.96;94199.53;521793;28;816;-47
2023/10/04 01:04:42;;;;;;;7.97;3.45;;;;;;;10.74;56.17;94198.28;521806;28;829;-48
2023/10/04 01:04:57;;;;;;;5.43;2.93;;;;;;;10.74;56.20;94201.03;521629;28;944;-48
2023/10/04 01:05:18;;;;;;;4.75;2.60;;;;;;;10.69;55.99;94193.59;521612;28;959;-46
2023/10/04 01:05:38;;;;;;;4.53;3.05;;;;;;;10.66;56.40;94192.63;521546;28;963;-48
2023/10/04 01:05:54;;;;;;;6.05;3.30;;;;;;;10.65;56.00;94196.66;521582;28;928;-48
2023/10/04 01:06:10;;;;;;;5.82;3.47;;;;;;;10.64;55.97;94202.72;521613;28;927;-47
2023/10/04 01:06:25;;;;;;;5.45;3.40;;;;;;;10.64;56.33;94202.72;521660;28;836;-47
2023/10/04 01:06:41;;;;;;;4.87;3.17;;;;;;;10.51;56.39;94175.88;521697;28;880;-47
2023/10/04 01:06:57;;;;;;;4.72;3.15;;;;;;;10.64;56.45;94197.94;521636;28;911;-46
2023/10/04 01:07:13;;;;;;;5.43;3.22;;;;;;;10.63;56.54;94198.50;521557;28;849;-47
2023/10/04 01:07:30;;;;;;;4.97;3.08;;;;;;;10.66;56.29;94198.16;521648;28;852;-48
2023/10/04 01:07:49;;;;;;;3.80;2.90;;;;;;;10.66;56.48;94194.66;521726;28;813;-47
2023/10/04 01:08:06;;;;;;;5.10;3.00;;;;;;;10.66;56.66;94195.41;521802;28;892;-47
2023/10/04 01:08:23;;;;;;;5.07;2.95;;;;;;;10.68;56.49;94205.19;521761;28;871;-47
2023/10/04 01:08:39;;;;;;;3.55;2.70;;;;;;;10.67;56.22;94196.16;521851;28;893;-48
2023/10/04 01:08:56;;;;;;;3.58;2.85;;;;;;;10.66;56.27;94203.69;521772;28;1661;-48
2023/10/04 01:09:13;;;;;;;3.92;3.08;;;;;;;10.68;56.31;94202.44;521827;28;835;-46
2023/10/04 01:09:28;;;;;;;3.75;2.90;;;;;;;10.61;56.37;94193.47;521772;28;872;-48
2023/10/04 01:09:43;;;;;;;4.10;2.87;;;;;;;10.66;56.64;94200.94;521585;28;864;-47
2023/10/04 01:09:59;;;;;;;3.97;2.63;;;;;;;10.66;56.59;94200.19;521686;28;797;-47
2023/10/04 01:10:16;;;;;;;4.13;2.70;;;;;;;10.66;56.67;94206.44;521592;28;1237;-46
2023/10/04 01:10:33;;;;;;;3.72;2.65;;;;;;;10.66;56.78;94206.44;521674;28;844;-46
2023/10/04 01:10:50;;;;;;;4.03;2.78;;;;;;;10.66;56.55;94206.44;521763;28;812;-47
2023/10/04 01:11:06;;;;;;;3.50;2.80;;;;;;;10.65;56.80;94207.00;521609;28;1041;-47
2023/10/04 01:11:22;;;;;;;2.75;2.55;;;;;;;10.64;56.45;94200.72;521597;28;844;-47
2023/10/04 01:11:45;;;;;;;3.33;2.58;;;;;;;10.65;56.47;94204.22;521818;28;836;-47
2023/10/04 01:12:00;;;;;;;3.97;2.90;;;;;;;10.63;56.64;94201.25;521803;28;1252;-46
2023/10/04 01:12:24;;;;;;;4.40;2.97;;;;;;;10.61;56.38;94199.00;521811;28;817;-46
2023/10/04 01:12:40;;;;;;;4.60;3.13;;;;;;;10.61;56.32;94201.75;521788;28;1064;-47
2023/10/04 01:12:56;;;;;;;5.50;3.00;;;;;;;10.61;56.19;94199.00;521748;28;880;-48
2023/10/04 01:13:12;;;;;;;4.97;2.88;;;;;;;10.61;56.21;94207.28;521773;28;813;-47
2023/10/04 01:13:27;;;;;;;4.27;3.17;;;;;;;10.61;56.29;94201.75;521727;28;1090;-48
2023/10/04 01:13:43;;;;;;;4.22;2.88;;;;;;;10.60;56.19;94208.56;521799;28;827;-44
2023/10/04 01:14:09;;;;;;;3.72;2.53;;;;;;;10.61;55.74;94201.03;521855;28;801;-46
2023/10/04 01:14:26;;;;;;;3.55;2.50;;;;;;;10.57;56.37;94195.06;521741;28;903;-46
2023/10/04 01:14:47;;;;;;;2.70;2.38;;;;;;;10.52;56.09;94188.41;521789;28;817;-47
2023/10/04 01:15:19;;;;;;;3.10;2.85;;;;;;;10.56;56.06;94197.09;521698;28;940;-48
2023/10/04 01:15:42;;;;;;;4.65;3.05;;;;;;;10.56;56.14;94205.41;521742;28;955;-47
2023/10/04 01:15:59;;;;;;;3.63;2.63;;;;;;;10.54;55.87;94199.66;521819;28;1595;-46
2023/10/04 01:16:15;;;;;;;3.83;2.90;;;;;;;10.53;56.11;94200.16;521823;28;832;-48
2023/10/04 01:16:33;;;;;;;5.03;3.17;;;;;;;10.52;56.06;94198.69;521868;28;884;-47
2023/10/04 01:16:51;;;;;;;4.65;2.88;;;;;;;10.52;55.82;94206.97;521816;28;830;-46
2023/10/04 01:17:12;;;;;;;4.90;2.80;;;;;;;10.51;55.53;94195.19;521818;28;927;-47
2023/10/04 01:17:28;;;;;;;4.32;2.83;;;;;;;10.49;55.92;94200.50;521826;28;1088;-47
2023/10/04 01:17:43;;;;;;;3.28;2.78;;;;;;;10.49;55.89;94200.50;521751;28;844;-47
2023/10/04 01:18:03;;;;;;;3.20;2.80;;;;;;;10.49;55.77;94194.22;521763;28;908;-47
2023/10/04 01:18:18;;;;;;;3.40;2.72;;;;;;;10.48;55.93;94204.53;521787;28;805;-46
2023/10/04 01:18:34;;;;;;;3.63;2.50;;;;;;;10.46;55.88;94203.59;521587;28;1017;-46
2023/10/04 01:18:50;;;;;;;3.20;2.40;;;;;;;10.43;55.99;94199.88;521759;28;871;-47
2023/10/04 01:19:06;;;;;;;3.30;2.57;;;;;;;10.41;55.93;94198.91;521663;28;904;-47
2023/10/04 01:19:22;;;;;;;4.03;2.70;;;;;;;10.41;56.12;94194.13;521521;28;982;-47
2023/10/04 01:19:38;;;;;;;3.90;2.80;;;;;;;10.40;56.11;94203.66;521752;28;876;-47
2023/10/04 01:19:53;;;;;;;4.23;2.97;;;;;;;10.40;56.29;94200.91;521672;28;1057;-47
2023/10/04 01:20:12;;;;;;;3.83;2.70;;;;;;;10.40;56.37;94197.41;521819;28;843;-46
2023/10/04 01:20:29;;;;;;;4.13;2.80;;;;;;;10.40;56.41;94198.16;521887;28;817;-48
2023/10/04 01:20:45;;;;;;;4.50;2.90;;;;;;;10.39;56.23;94199.44;521806;28;852;-47
2023/10/04 01:21:00;;;;;;;4.47;3.00;;;;;;;10.40;56.12;94189.88;521775;28;921;-47
2023/10/04 01:21:17;;;;;;;5.10;3.20;;;;;;;10.40;56.38;94194.63;521768;28;1088;-48
2023/10/04 01:21:33;;;;;;;4.55;3.20;;;;;;;10.40;56.02;94200.16;521761;28;916;-47
2023/10/04 01:21:49;;;;;;;4.70;2.90;;;;;;;10.40;56.27;94198.16;521907;28;812;-48
2023/10/04 01:22:05;;;;;;;4.70;3.00;;;;;;;10.40;56.08;94197.41;521779;28;851;-46
2023/10/04 01:22:21;;;;;;;4.37;3.13;;;;;;;10.40;56.23;94197.41;521852;28;875;-47
2023/10/04 01:22:37;;;;;;;4.55;3.13;;;;;;;10.16;56.16;94167.97;521819;28;931;-46